KDXR/DXR METAR and TAF weather

Enter ICAO airport designator
Station Type Date Time Source
KDXR METAR 2019/04/19 21:53 UTC NOAA

KDXR 192153Z 17014G20KT 10SM CLR 22/16 A2975 RMK AO2 SLP073 T02170156


Station Type Date Time Source
KDXR Decoded METAR 2019/04/19 21:53 UTC NOAA

DANBURY MUNICIPAL AIRPORT, CT, United States (KDXR) 41-22N 073-29W 139M
Apr 19, 2019 - 05:53 PM EDT / 2019.04.19 2153 UTC
Wind: from the S (170 degrees) at 16 MPH (14 KT) gusting to 23 MPH (20 KT):0
Visibility: 10 mile(s):0
Sky conditions: clear
Temperature: 71.1 F (21.7 C)
Dew Point: 60.1 F (15.6 C)
Relative Humidity: 68%
Pressure (altimeter): 29.75 in. Hg (1007 hPa)
ob: KDXR 192153Z 17014G20KT 10SM CLR 22/16 A2975 RMK AO2 SLP073 T02170156
cycle: 22

Station Type Date Time Source
KDXR TAF UTC NOAA

Error!

Example: see airport list